Nearby METAR Reports

 

EGMC - Southend-On-Sea, United Kingdom
Distance from station: NE 10km
Updated: 21/02/2018 20:50
Haze, Mostly cloudy
Haze, Mostly cloudy
 Wind from N
Wind: N 6 mph , 9 km/h
Temperature: 4°C
Wind Chill: 2°C
Dew Point: 2°C
Humidity: 87%
Barometer: 1025 hPa
Summary: Haze
Clouds: Mostly cloudy
Visibility: 3 miles , 5 km
Cloud details: Mostly cloudy 488 m
2018/02/21 20:50 EGMC 212050Z 01005KT 5000 HZ BKN016 04/02 Q1025
EGLC - London City Airp, United Kingdom
Distance from station: W 37km
Updated: 21/02/2018 20:50
Overcast
Overcast
 Wind from ENE
Wind: ENE 6 mph , 9 km/h
Temperature: 5°C
Wind Chill: 3°C
Dew Point: 3°C
Humidity: 87%
Barometer: 1026 hPa
Clouds: Overcast
Visibility: 4 miles , 7 km
Cloud details: Mostly cloudy 366 m
Overcast 488 m
2018/02/21 20:50 EGLC 212050Z AUTO 07005KT 7000 BKN012 OVC016 05/03 Q1026
EGKB - Biggin Hill, United Kingdom
Distance from station: WSW 45km
Updated: 21/02/2018 20:50
Light rain, Mostly cloudy
Light rain, Mostly cloudy
 Wind from NNE
Wind: NNE 5 mph , 7 km/h
Temperature: 3°C
Wind Chill: 1°C
Dew Point: 3°C
Humidity: 100%
Barometer: 1025 hPa
Summary: Light rain
Clouds: Mostly cloudy
Visibility: 4 miles , 7 km
Cloud details: Few Clouds 305 m
Mostly cloudy 610 m
2018/02/21 20:50 EGKB 212050Z 02004KT 350V050 7000 -RA FEW010 BKN020 03/03 Q1025
 
EGSS - Stansted Airport, United Kingdom
Distance from station: NNW 48km
Updated: 21/02/2018 20:50
Overcast
Overcast
 Wind from NNE
Wind: NNE 8 mph , 13 km/h
Temperature: 4°C
Wind Chill: 1°C
Dew Point: 2°C
Humidity: 87%
Barometer: 1026 hPa
Clouds: Overcast
Visibility: 5 miles , 8 km
Cloud details: Overcast 1006 m
2018/02/21 20:50 EGSS 212050Z AUTO 03007KT 8000 OVC033 04/02 Q1026
EGKK - London/Gatwick A, United Kingdom
Distance from station: SW 67km
Updated: 21/02/2018 20:50
Light drizzle, Overcast
Light drizzle, Overcast
 Wind from NNE
Wind: NNE 7 mph , 11 km/h, Gust: 18 mph , 30 km/h
Temperature: 5°C
Wind Chill: 2°C
Dew Point: 2°C
Humidity: 81%
Barometer: 1025 hPa
Summary: Light Drizzle
Clouds: Overcast
Visibility: 3 miles , 5 km
Cloud details: Partly cloudy 427 m
Mostly cloudy 579 m
Overcast 792 m
2018/02/21 20:50 EGKK 212050Z AUTO 02006G16KT 350V170 4600 -DZ SCT014/// BKN019/// OVC026/// 05/02 Q1025 RERA REDZ
EGMD - Lydd Airport, United Kingdom
Distance from station: SSE 67km
Updated: 21/02/2018 20:50
Haze, Clear
Haze, Clear
 Wind from N
Wind: N 8 mph , 13 km/h
Temperature: 0°C
Wind Chill: -4°C
Dew Point: -1°C
Humidity: 93%
Barometer: 1025 hPa
Summary: Haze
Clouds: Clear
Visibility: 3 miles , 5 km
2018/02/21 20:50 EGMD 212050Z AUTO 01007KT 5000 HZ NCD 00/M01 Q1025
 
EGWU - Northolt Raf, United Kingdom
Distance from station: W 69km
Updated: 21/02/2018 20:50
Haze, Mostly cloudy
Haze, Mostly cloudy
 Wind from NE
Wind: NE 5 mph , 7 km/h
Temperature: 5°C
Wind Chill: 3°C
Dew Point: 3°C
Humidity: 87%
Barometer: 1026 hPa
Summary: Haze
Clouds: Mostly cloudy
Visibility: 4 miles , 7 km
Cloud details: Few Clouds 396 m
Partly cloudy 914 m
Mostly cloudy 1372 m
2018/02/21 20:50 EGWU 212050Z 05004KT 7000 HZ FEW013 SCT030 BKN045 05/03 Q1026 WHT TEMPO 4000 SCT012 GRN
EGLL - London/Heathrow, United Kingdom
Distance from station: W 72km
Updated: 21/02/2018 20:50
Overcast
Overcast
 Wind from NE
Wind: NE 5 mph , 7 km/h
Temperature: 5°C
Wind Chill: 3°C
Dew Point: 3°C
Humidity: 87%
Barometer: 1026 hPa
Clouds: Overcast
Visibility: 4 miles , 7 km
Cloud details: Partly cloudy 518 m
Mostly cloudy 1036 m
Overcast 1372 m
2018/02/21 20:50 EGLL 212050Z AUTO 04004KT 360V070 7000 SCT017 BKN034 OVC045 05/03 Q1026 NOSIG
EGUW - Wattisham Raf, United Kingdom
Distance from station: NNE 72km
Updated: 21/02/2018 20:50
Haze, Mostly cloudy
Haze, Mostly cloudy
 Wind from N
Wind: N 5 mph , 7 km/h
Temperature: 2°C
Wind Chill: 0°C
Dew Point: 1°C
Humidity: 93%
Barometer: 1026 hPa
Summary: Haze
Clouds: Mostly cloudy
Visibility: 3 miles , 5 km
Cloud details: Few Clouds 305 m
Mostly cloudy 1372 m
2018/02/21 20:50 EGUW 212050Z 01004KT 5000 HZ FEW010 BKN045 02/01 Q1026 WHT BECMG 4000 BR GRN
 
EGGW - Luton Airport, United Kingdom
Distance from station: WNW 76km
Updated: 21/02/2018 20:50
Mostly cloudy
Mostly cloudy
 Wind from NNE
Wind: NNE 7 mph , 11 km/h
Temperature: 2°C
Wind Chill: -1°C
Dew Point: 1°C
Humidity: 93%
Barometer: 1025 hPa
Clouds: Mostly cloudy
Visibility: 6 miles , 10 km
Cloud details: Mostly cloudy 914 m
2018/02/21 20:50 EGGW 212050Z AUTO 03006KT 010V090 9999 BKN030 02/01 Q1025
EGSC - Cambridge, United Kingdom
Distance from station: NNW 81km
Updated: 21/02/2018 17:50
NOT Current
Mostly cloudy
Mostly cloudy
 Wind from NNE
Wind: NNE 3 mph , 6 km/h
Temperature: 5°C
Dew Point: 3°C
Humidity: 87%
Barometer: 1026 hPa
Clouds: Mostly cloudy
Visibility: 4 miles , 7 km
Cloud details: Few Clouds 457 m
Mostly cloudy 762 m
2018/02/21 17:50 EGSC 211750Z 02003KT 7000 FEW015 BKN025 05/03 Q1026